Herndon, Pennsylvania
Current Conditions -  °F | °C
As of 5:53 PM on Thursday 20 Nov 2014 (Local Time) from KSEG Reporting Station
Clear Clear  
Wind Chill: 22°   Ceiling: Unl
Heat Index: 30°   Visibility: 10mi
Dew Point: 10°   Wind: 8mph
Humidity: 43%   Direction: 280°W
Pressure: 30.01"   Gusts: 18mph
Location:  40.71°N, 76.84°W
Report Text: KSEG 202253Z AUTO 28007G16KT 10SM CLR M01/M12 A3001 RMK AO2 SLP166 T10111122
Loading
Personal Weather Stations






























Interactive Weather Map New forecast layout! Learn more

10-Day Weather Forecast

Advertisements
Track Severe Weather on mobile